Time;durP1;ratioP1;P1;durP2;ratioP2;P2;SDS_P1;SDS_P2;PMS_P1;PMS_P2;Temp;Humidity;BMP_temperature;BMP_pressure;BME280_temperature;BME280_humidity;BME280_pressure;Samples;Min_cycle;Max_cycle;Signal;HPM_P1;HPM_P2
2022/06/08 00:02:19;;;;;;;3.43;1.73;;;;;;;12.95;94.56;95387.19;5017488;28;20175;-80
2022/06/08 00:04:45;;;;;;;4.33;2.13;;;;;;;12.75;95.06;95387.53;5033380;28;20175;-80
2022/06/08 00:07:10;;;;;;;2.10;1.60;;;;;;;12.83;95.13;95383.31;5016959;28;20654;-80
2022/06/08 00:09:36;;;;;;;2.60;1.80;;;;;;;12.89;95.06;95374.81;5015056;28;20219;-80
2022/06/08 00:12:03;;;;;;;2.43;1.83;;;;;;;12.87;95.47;95371.56;5013931;28;20587;-80
2022/06/08 00:14:29;;;;;;;2.10;1.90;;;;;;;12.87;95.66;95374.16;5012956;28;20604;-80
2022/06/08 00:16:54;;;;;;;4.80;1.93;;;;;;;12.91;94.35;95370.28;5012766;28;20186;-79
2022/06/08 00:19:20;;;;;;;3.13;1.90;;;;;;;12.81;94.25;95365.25;5013637;28;20597;-80
2022/06/08 00:21:45;;;;;;;3.13;1.60;;;;;;;12.73;94.73;95358.25;5015462;28;20186;-80
2022/06/08 00:24:10;;;;;;;2.80;1.70;;;;;;;12.80;94.29;95360.16;4996611;28;20179;-80
2022/06/08 00:26:36;;;;;;;4.13;1.97;;;;;;;12.90;93.47;95363.44;5019484;28;20230;-81
2022/06/08 00:29:03;;;;;;;3.27;2.03;;;;;;;12.72;93.86;95358.38;4996532;28;20199;-80
2022/06/08 00:31:28;;;;;;;3.97;1.97;;;;;;;12.72;93.84;95361.84;5024061;28;20175;-76
2022/06/08 00:33:53;;;;;;;3.73;2.07;;;;;;;12.61;94.40;95351.72;4998296;28;20211;-80
2022/06/08 00:36:19;;;;;;;4.20;1.90;;;;;;;12.63;93.85;95356.78;5013839;28;20195;-81
2022/06/08 00:38:44;;;;;;;3.07;2.10;;;;;;;12.64;94.23;95353.22;5014842;28;20198;-80
2022/06/08 00:41:34;;;;;;;1.90;1.70;;;;;;;12.65;94.24;95349.63;5013452;28;20179;-81
2022/06/08 00:44:02;;;;;;;1.83;1.73;;;;;;;12.61;94.56;95343.09;5013280;28;20175;-79
2022/06/08 00:46:28;;;;;;;5.03;1.90;;;;;;;12.61;94.09;95341.31;4996505;28;20194;-76
2022/06/08 00:48:59;;;;;;;2.43;1.83;;;;;;;12.40;95.51;95338.41;5013660;28;20195;-79
2022/06/08 00:51:24;;;;;;;3.40;2.00;;;;;;;12.48;93.91;95338.41;5013344;28;20166;-80
2022/06/08 00:53:54;;;;;;;2.97;1.80;;;;;;;12.54;93.71;95340.34;5012442;28;20207;-80
2022/06/08 00:56:22;;;;;;;3.90;2.07;;;;;;;12.53;93.67;95336.09;4996617;28;20195;-79
2022/06/08 00:58:48;;;;;;;4.67;1.97;;;;;;;12.51;93.42;95337.25;4996837;28;20226;-79
2022/06/08 01:01:13;;;;;;;2.17;1.50;;;;;;;12.46;91.77;95333.38;5013258;28;20191;-80
2022/06/08 01:03:39;;;;;;;3.23;1.60;;;;;;;12.47;91.13;95326.38;5012665;28;20590;-80
2022/06/08 01:06:18;;;;;;;3.57;1.70;;;;;;;12.55;91.89;95321.16;5012386;28;20196;-80
2022/06/08 01:08:49;;;;;;;2.53;1.73;;;;;;;12.57;92.23;95327.00;5012905;28;20199;-79
2022/06/08 01:11:23;;;;;;;4.60;1.87;;;;;;;12.50;92.64;95317.41;5012660;28;20179;-79
2022/06/08 01:13:49;;;;;;;2.13;1.90;;;;;;;12.41;92.86;95322.63;5012052;28;20554;-81
2022/06/08 01:16:15;;;;;;;4.70;1.60;;;;;;;12.38;93.44;95322.97;5012755;28;20179;-81
2022/06/08 01:18:41;;;;;;;4.33;1.80;;;;;;;12.51;92.96;95321.63;4995992;28;20670;-80
2022/06/08 01:21:18;;;;;;;3.77;1.90;;;;;;;12.43;93.46;95325.88;4996537;28;20195;-80
2022/06/08 01:23:44;;;;;;;3.20;1.70;;;;;;;12.45;93.37;95315.28;5023607;28;20178;-81
2022/06/08 01:26:13;;;;;;;3.10;1.53;;;;;;;12.41;93.08;95320.00;5015348;28;20241;-79
2022/06/08 01:29:16;;;;;;;3.07;1.93;;;;;;;12.35;92.71;95319.84;5032554;28;20198;-78
2022/06/08 01:31:49;;;;;;;2.63;1.87;;;;;;;12.24;93.22;95314.97;5032029;28;20663;-81
2022/06/08 01:34:59;;;;;;;3.23;1.87;;;;;;;12.24;93.42;95317.59;5031570;28;20614;-80
2022/06/08 01:37:35;;;;;;;1.77;1.50;;;;;;;12.23;92.95;95318.56;5015946;28;20571;-80
2022/06/08 01:40:39;;;;;;;2.70;1.73;;;;;;;12.15;93.71;95312.38;5015613;28;20178;-79
2022/06/08 01:43:23;;;;;;;5.00;1.90;;;;;;;12.12;93.77;95312.72;5012428;28;20201;-80
2022/06/08 01:46:23;;;;;;;3.43;1.67;;;;;;;12.04;93.93;95312.72;5031390;28;20552;-81
2022/06/08 01:49:08;;;;;;;4.83;2.10;;;;;;;12.09;93.20;95309.59;5031838;28;20982;-80
2022/06/08 01:51:51;;;;;;;3.53;1.70;;;;;;;12.07;93.20;95311.56;5031805;28;20170;-80
2022/06/08 01:54:34;;;;;;;3.17;1.80;;;;;;;12.03;92.61;95305.88;5014279;28;20206;-80
2022/06/08 01:57:13;;;;;;;2.93;1.77;;;;;;;12.15;92.05;95301.97;5031350;28;20178;-80
2022/06/08 02:00:11;;;;;;;2.20;1.40;;;;;;;12.09;92.06;95297.41;5031530;28;20190;-82
2022/06/08 02:03:01;;;;;;;2.90;1.73;;;;;;;12.04;92.33;95298.88;4990764;28;20200;-81
2022/06/08 02:05:48;;;;;;;3.13;1.73;;;;;;;11.99;92.15;95301.16;4974157;28;20179;-81
2022/06/08 02:08:30;;;;;;;3.23;1.67;;;;;;;12.03;91.72;95292.06;4958556;28;20271;-81
2022/06/08 02:11:06;;;;;;;2.07;1.50;;;;;;;12.08;91.28;95290.56;4974716;28;20286;-80
2022/06/08 02:13:38;;;;;;;1.93;1.57;;;;;;;12.04;90.52;95293.69;4958176;28;20222;-79
2022/06/08 02:16:11;;;;;;;3.57;1.60;;;;;;;12.06;90.88;95287.31;4974008;28;20176;-80
2022/06/08 02:18:44;;;;;;;2.60;1.50;;;;;;;12.08;90.34;95285.38;4958443;28;20588;-79
2022/06/08 02:21:13;;;;;;;3.40;1.60;;;;;;;12.02;90.62;95286.03;4974283;28;20191;-79
2022/06/08 02:23:49;;;;;;;2.87;1.63;;;;;;;12.00;91.07;95279.34;4974021;28;20546;-80
2022/06/08 02:26:22;;;;;;;4.47;1.67;;;;;;;11.95;90.66;95274.66;4957734;28;20262;-79
2022/06/08 02:28:52;;;;;;;3.40;1.77;;;;;;;11.91;90.57;95278.53;4989153;28;20282;-80
2022/06/08 02:31:27;;;;;;;4.83;1.83;;;;;;;11.93;90.77;95273.16;4973827;28;20202;-78
2022/06/08 02:36:43;;;;;;;3.40;1.57;;;;;;;11.93;90.31;95262.75;4990579;28;20187;-80
2022/06/08 02:39:28;;;;;;;4.53;1.57;;;;;;;11.91;90.26;95268.13;5012075;28;20210;-79
2022/06/08 02:41:58;;;;;;;2.03;1.30;;;;;;;11.87;90.30;95272.03;5030688;28;20185;-80
2022/06/08 02:44:27;;;;;;;3.57;1.53;;;;;;;11.96;89.43;95267.66;5030419;28;20174;-79
2022/06/08 02:47:16;;;;;;;2.90;1.70;;;;;;;11.98;89.31;95263.91;5014313;28;20185;-79
2022/06/08 02:49:42;;;;;;;4.40;1.60;;;;;;;11.99;89.03;95273.34;5030512;28;20235;-78
2022/06/08 02:52:17;;;;;;;3.90;1.80;;;;;;;12.00;88.92;95255.94;5030655;28;20826;-78
2022/06/08 02:54:43;;;;;;;2.70;1.70;;;;;;;12.00;89.05;95258.53;5030042;28;20201;-80
2022/06/08 02:57:33;;;;;;;4.33;1.60;;;;;;;12.08;88.11;95253.31;5030453;28;20208;-78
2022/06/08 03:00:06;;;;;;;5.90;1.73;;;;;;;12.22;87.20;95251.84;5030323;28;20178;-79
2022/06/08 03:02:58;;;;;;;2.90;1.40;;;;;;;12.22;86.72;95244.03;5030331;28;20179;-79
2022/06/08 03:05:26;;;;;;;2.17;1.23;;;;;;;12.26;86.29;95247.94;5013478;28;20240;-79
2022/06/08 03:08:02;;;;;;;2.27;1.40;;;;;;;12.16;86.85;95245.50;5030662;28;20198;-80
2022/06/08 03:10:33;;;;;;;3.90;1.70;;;;;;;12.31;86.00;95248.25;5031474;28;20210;-81
2022/06/08 03:13:09;;;;;;;2.37;1.60;;;;;;;12.32;85.44;95248.09;5013697;28;20178;-78
2022/06/08 03:15:36;;;;;;;2.87;1.70;;;;;;;12.36;85.30;95243.34;5013220;28;20221;-79
2022/06/08 03:18:02;;;;;;;2.20;1.50;;;;;;;12.41;84.69;95234.09;5014188;28;20309;-79
2022/06/08 03:20:28;;;;;;;4.57;1.30;;;;;;;12.43;84.22;95237.31;5043512;28;20190;-79
2022/06/08 03:22:54;;;;;;;5.73;1.53;;;;;;;12.50;83.87;95231.47;5020320;28;20186;-80
2022/06/08 03:25:20;;;;;;;3.30;1.50;;;;;;;12.57;83.54;95235.84;5019653;28;20662;-78
2022/06/08 03:27:46;;;;;;;4.23;1.50;;;;;;;12.61;83.42;95233.69;5037791;28;20201;-76
2022/06/08 03:30:13;;;;;;;4.23;1.60;;;;;;;12.63;82.53;95232.56;5018013;28;20175;-79
2022/06/08 03:32:38;;;;;;;4.50;1.87;;;;;;;12.56;83.12;95229.00;5031717;28;20189;-78
2022/06/08 03:35:04;;;;;;;3.13;1.30;;;;;;;12.70;82.59;95228.28;5014408;28;20300;-80
2022/06/08 03:37:30;;;;;;;5.73;1.60;;;;;;;12.66;82.65;95221.81;5014906;28;20234;-78
2022/06/08 03:39:58;;;;;;;3.90;1.60;;;;;;;12.77;82.06;95223.22;5015016;28;20532;-79
2022/06/08 03:42:24;;;;;;;2.97;1.23;;;;;;;12.80;81.91;95228.09;5014425;28;20181;-80
2022/06/08 03:44:49;;;;;;;9.20;1.97;;;;;;;12.80;81.66;95227.28;5029889;28;20258;-81
2022/06/08 03:47:19;;;;;;;4.77;1.50;;;;;;;12.86;81.10;95230.03;5013486;28;20626;-80
2022/06/08 03:49:44;;;;;;;4.00;1.87;;;;;;;13.02;80.82;95231.75;5015101;28;20177;-81
2022/06/08 03:52:16;;;;;;;5.47;1.50;;;;;;;13.93;76.40;95235.44;5033559;28;20178;-81
2022/06/08 03:54:46;;;;;;;3.87;1.30;;;;;;;15.20;71.16;95224.03;5016890;28;20732;-81
2022/06/08 03:57:14;;;;;;;4.37;1.40;;;;;;;16.61;65.67;95229.34;5017199;28;20174;-81
2022/06/08 03:59:40;;;;;;;3.10;1.27;;;;;;;17.35;61.03;95230.50;5033886;28;20663;-80
2022/06/08 04:02:07;;;;;;;3.25;1.35;;;;;;;17.77;59.53;95240.75;5034525;28;20184;-81
2022/06/08 04:04:33;;;;;;;3.20;1.15;;;;;;;18.02;58.08;95232.28;5019433;28;20705;-80
2022/06/08 04:06:58;;;;;;;7.20;1.20;;;;;;;18.16;57.46;95233.91;5021032;28;20190;-78
2022/06/08 04:09:24;;;;;;;6.25;1.20;;;;;;;18.07;56.83;95235.13;5015353;28;20232;-79
2022/06/08 04:11:49;;;;;;;6.32;1.33;;;;;;;17.51;58.30;95228.34;5040314;28;20272;-78
2022/06/08 04:14:14;;;;;;;2.65;1.10;;;;;;;17.36;59.17;95242.63;5038423;28;20547;-78
2022/06/08 04:16:40;;;;;;;2.75;1.17;;;;;;;18.43;55.15;95237.34;5058012;28;20177;-79
2022/06/08 04:19:05;;;;;;;1.65;0.82;;;;;;;18.29;55.28;95238.38;5057697;28;20201;-79
2022/06/08 04:21:31;;;;;;;1.58;0.98;;;;;;;17.90;56.60;95228.63;5056658;28;20182;-80
2022/06/08 04:23:56;;;;;;;4.53;1.40;;;;;;;17.87;56.60;95229.84;5039580;28;20572;-80
2022/06/08 04:26:22;;;;;;;4.03;1.20;;;;;;;16.85;60.76;95216.75;5055593;28;20189;-79
2022/06/08 04:28:47;;;;;;;3.97;1.30;;;;;;;16.34;62.94;95211.78;5053674;28;20244;-79
2022/06/08 04:31:13;;;;;;;3.72;1.20;;;;;;;15.64;66.17;95220.50;5056521;28;20622;-80
2022/06/08 04:33:39;;;;;;;3.05;1.10;;;;;;;15.43;66.77;95214.19;5053795;28;20276;-79
2022/06/08 04:36:05;;;;;;;4.07;1.48;;;;;;;15.37;68.35;95220.19;5038211;28;20284;-79
2022/06/08 04:38:32;;;;;;;5.47;1.40;;;;;;;15.08;69.46;95223.66;5057695;28;20588;-81
2022/06/08 04:40:57;;;;;;;1.73;1.20;;;;;;;15.25;69.73;95216.41;5038679;28;20174;-80
2022/06/08 04:43:23;;;;;;;3.05;1.20;;;;;;;15.31;69.83;95210.47;5054994;28;20174;-80
2022/06/08 04:45:48;;;;;;;3.22;1.33;;;;;;;15.84;67.42;95217.06;5037496;28;20181;-81
2022/06/08 04:48:14;;;;;;;2.65;1.33;;;;;;;15.86;67.97;95220.28;5036053;28;20681;-80
2022/06/08 04:50:40;;;;;;;5.65;1.20;;;;;;;16.24;66.45;95219.19;5037811;28;20224;-80
2022/06/08 04:53:05;;;;;;;5.05;1.60;;;;;;;17.23;62.37;95227.66;5054976;28;20320;-79
2022/06/08 04:55:30;;;;;;;3.08;1.20;;;;;;;17.75;60.61;95224.34;5055333;28;20206;-80
2022/06/08 04:57:56;;;;;;;4.75;1.13;;;;;;;17.51;61.38;95235.41;5038023;28;20255;-79
2022/06/08 05:00:22;;;;;;;1.45;1.02;;;;;;;17.47;61.30;95232.34;5054266;28;20208;-79
2022/06/08 05:02:49;;;;;;;3.88;1.42;;;;;;;17.08;62.61;95227.78;5037777;28;20222;-80
2022/06/08 05:05:24;;;;;;;3.00;1.38;;;;;;;16.94;62.97;95219.03;5054337;28;20220;-79
2022/06/08 05:07:50;;;;;;;4.03;1.25;;;;;;;16.63;63.64;95221.28;5054630;28;20712;-78
2022/06/08 05:10:16;;;;;;;2.67;1.50;;;;;;;17.69;61.15;95222.53;5037611;28;20185;-80
2022/06/08 05:12:41;;;;;;;2.28;1.10;;;;;;;17.52;60.88;95229.16;5054110;28;20578;-78
2022/06/08 05:15:22;;;;;;;2.47;1.15;;;;;;;16.30;64.73;95228.91;5055057;28;20237;-80
2022/06/08 05:17:47;;;;;;;2.50;1.05;;;;;;;15.91;65.87;95226.78;5037291;28;20288;-78
2022/06/08 05:20:14;;;;;;;1.30;1.02;;;;;;;15.95;66.59;95228.81;5037532;28;20206;-80
2022/06/08 05:22:40;;;;;;;1.73;1.23;;;;;;;15.74;67.98;95223.59;5054104;28;20209;-80
2022/06/08 05:25:07;;;;;;;5.00;1.73;;;;;;;15.69;68.03;95233.81;5053207;28;20228;-79
2022/06/08 05:27:32;;;;;;;3.53;1.20;;;;;;;15.79;68.46;95229.06;5037570;28;20197;-80
2022/06/08 05:29:58;;;;;;;4.95;1.40;;;;;;;15.87;69.10;95226.34;5055294;28;20173;-78
2022/06/08 05:32:23;;;;;;;4.95;1.40;;;;;;;16.35;66.99;95214.25;5036744;28;20184;-80
2022/06/08 05:34:48;;;;;;;3.63;1.30;;;;;;;16.14;67.95;95215.06;5037050;28;20235;-80
2022/06/08 05:37:14;;;;;;;4.95;1.40;;;;;;;16.19;67.34;95217.13;5037212;28;20185;-79
2022/06/08 05:39:41;;;;;;;5.60;1.80;;;;;;;16.00;68.40;95221.22;5036975;28;20277;-78
2022/06/08 05:42:07;;;;;;;5.47;1.30;;;;;;;16.29;67.81;95214.19;5053372;28;20327;-79
2022/06/08 05:44:32;;;;;;;2.40;1.42;;;;;;;16.29;68.02;95209.75;5036210;28;20189;-79
2022/06/08 05:46:58;;;;;;;4.20;1.52;;;;;;;16.37;67.27;95198.31;5053799;28;20178;-80
2022/06/08 05:49:23;;;;;;;4.47;1.50;;;;;;;17.16;65.57;95198.75;5051790;28;20676;-80
2022/06/08 05:51:48;;;;;;;3.35;1.33;;;;;;;19.09;59.03;95207.50;5052681;28;20178;-78
2022/06/08 05:54:14;;;;;;;3.03;1.20;;;;;;;19.03;58.33;95203.06;5036165;28;20213;-80
2022/06/08 05:56:40;;;;;;;3.53;0.98;;;;;;;19.10;57.57;95209.91;5037385;28;20221;-77
2022/06/08 05:59:06;;;;;;;1.55;1.20;;;;;;;19.25;57.19;95213.06;5037188;28;20619;-79
2022/06/08 06:01:31;;;;;;;3.67;1.20;;;;;;;19.15;58.97;95211.91;5037899;28;20174;-78
2022/06/08 06:03:59;;;;;;;4.75;1.20;;;;;;;19.38;58.40;95211.41;5054472;28;20166;-80
2022/06/08 06:06:24;;;;;;;3.58;1.05;;;;;;;19.98;55.59;95202.16;5054112;28;20170;-80
2022/06/08 06:08:50;;;;;;;1.95;1.02;;;;;;;20.65;54.49;95202.41;5037855;28;20209;-80
2022/06/08 06:11:15;;;;;;;1.80;1.20;;;;;;;21.27;51.18;95202.34;5035821;28;20185;-77
2022/06/08 06:13:41;;;;;;;2.78;1.10;;;;;;;21.16;50.04;95204.69;5034078;28;20666;-79
2022/06/08 06:16:07;;;;;;;2.80;1.33;;;;;;;21.13;50.81;95199.84;5050903;28;20173;-79
2022/06/08 06:18:33;;;;;;;2.03;1.10;;;;;;;21.68;49.87;95197.13;5034096;28;20244;-79
2022/06/08 06:20:58;;;;;;;2.67;1.40;;;;;;;21.44;48.79;95195.44;5034108;28;20277;-79
2022/06/08 06:23:25;;;;;;;2.85;1.08;;;;;;;23.16;46.33;95190.81;5034115;28;20182;-79
2022/06/08 06:25:51;;;;;;;3.53;1.23;;;;;;;22.85;46.35;95196.50;5050600;28;20240;-82
2022/06/08 06:28:16;;;;;;;1.73;1.10;;;;;;;23.27;45.99;95199.75;5051111;28;20189;-79
2022/06/08 06:30:41;;;;;;;3.35;0.93;;;;;;;25.78;38.85;95200.66;5051608;28;20545;-80
2022/06/08 06:33:10;;;;;;;2.47;1.10;;;;;;;25.41;39.96;95197.84;5051060;28;20182;-79
2022/06/08 06:35:35;;;;;;;6.32;1.23;;;;;;;26.01;39.37;95196.09;5049777;28;20197;-79
2022/06/08 06:38:00;;;;;;;1.88;1.00;;;;;;;26.74;37.82;95195.34;5033788;28;20250;-79
2022/06/08 06:40:26;;;;;;;2.78;1.60;;;;;;;27.82;35.40;95196.63;5033805;28;20173;-78
2022/06/08 06:42:51;;;;;;;4.38;0.95;;;;;;;28.73;33.49;95190.53;5053319;28;20174;-79
2022/06/08 06:45:17;;;;;;;1.60;1.00;;;;;;;29.42;32.08;95192.50;5037302;28;20181;-79
2022/06/08 06:47:42;;;;;;;4.15;1.40;;;;;;;27.54;34.17;95192.53;5058657;28;20267;-79
2022/06/08 06:50:10;;;;;;;2.42;1.10;;;;;;;27.87;34.11;95191.31;5054589;28;20255;-78
2022/06/08 06:52:36;;;;;;;3.70;1.17;;;;;;;28.90;32.93;95196.41;5045487;28;20238;-77
2022/06/08 06:55:01;;;;;;;2.03;1.10;;;;;;;29.55;30.60;95188.44;5044555;28;20205;-77
2022/06/08 06:57:26;;;;;;;5.57;1.02;;;;;;;29.66;30.49;95184.63;5060409;28;20203;-79
2022/06/08 06:59:52;;;;;;;5.60;1.13;;;;;;;28.17;33.13;95190.53;5035253;28;20240;-77
2022/06/08 07:02:20;;;;;;;3.05;1.30;;;;;;;27.91;33.42;95187.84;5036512;28;20550;-78
2022/06/08 07:04:45;;;;;;;4.30;1.48;;;;;;;30.04;30.42;95190.25;5034563;28;20182;-78
2022/06/08 07:07:11;;;;;;;3.42;1.40;;;;;;;28.46;32.41;95174.81;5036584;28;20171;-77
2022/06/08 07:09:37;;;;;;;4.25;1.70;;;;;;;27.93;33.50;95179.59;5031203;28;20182;-78
2022/06/08 07:12:03;;;;;;;3.00;1.23;;;;;;;27.75;33.26;95172.88;5016121;28;20174;-79
2022/06/08 07:14:29;;;;;;;3.22;1.15;;;;;;;28.75;32.60;95175.03;5011448;28;20209;-78
2022/06/08 07:16:54;;;;;;;6.18;2.13;;;;;;;29.05;31.65;95166.94;5030593;28;20174;-78
2022/06/08 07:19:20;;;;;;;3.47;1.00;;;;;;;29.59;30.42;95162.72;5013836;28;20214;-78
2022/06/08 07:21:45;;;;;;;3.22;0.95;;;;;;;29.48;30.32;95163.81;5034663;28;20185;-77
2022/06/08 07:24:17;;;;;;;2.65;0.90;;;;;;;28.22;32.47;95158.50;5015797;28;20563;-77
2022/06/08 07:26:42;;;;;;;4.20;1.15;;;;;;;27.73;32.68;95153.66;5035465;28;20190;-79
2022/06/08 07:29:08;;;;;;;3.65;1.10;;;;;;;27.99;31.79;95153.69;5019503;28;20540;-78
2022/06/08 07:31:33;;;;;;;4.53;1.20;;;;;;;28.49;31.43;95160.91;5035919;28;20757;-79
2022/06/08 07:33:58;;;;;;;3.25;0.88;;;;;;;28.25;31.95;95152.63;5033101;28;20312;-79
2022/06/08 07:36:24;;;;;;;3.47;1.13;;;;;;;26.98;33.70;95141.66;5033974;28;20181;-78
2022/06/08 07:38:49;;;;;;;5.78;1.00;;;;;;;27.51;32.84;95139.72;5017656;28;20645;-78
2022/06/08 07:41:14;;;;;;;3.53;0.90;;;;;;;27.78;32.57;95140.34;5016902;28;20178;-79
2022/06/08 07:43:40;;;;;;;2.38;0.90;;;;;;;28.21;31.16;95132.88;5033219;28;20189;-77
2022/06/08 07:46:05;;;;;;;3.08;0.80;;;;;;;27.26;32.75;95129.78;5035011;28;20174;-78
2022/06/08 07:51:16;;;;;;;1.27;0.77;;;;;;;27.40;32.11;95117.59;5034829;28;20673;-77
2022/06/08 07:53:42;;;;;;;1.83;0.93;;;;;;;26.92;33.07;95118.72;5033700;28;20202;-78
2022/06/08 07:56:08;;;;;;;3.35;1.05;;;;;;;26.56;33.98;95121.22;5016808;28;20183;-78
2022/06/08 07:58:33;;;;;;;2.78;1.05;;;;;;;26.23;35.13;95127.63;5033842;28;20225;-78
2022/06/08 08:00:58;;;;;;;2.63;0.77;;;;;;;26.13;34.72;95119.56;5017194;28;20177;-78
2022/06/08 08:03:24;;;;;;;4.60;1.08;;;;;;;26.19;34.91;95118.56;5033393;28;20228;-79
2022/06/08 08:05:49;;;;;;;5.63;0.85;;;;;;;25.31;34.38;95113.50;5016217;28;20171;-79
2022/06/08 08:08:15;;;;;;;3.63;0.95;;;;;;;25.27;33.24;95119.56;5033472;28;20202;-79
2022/06/08 08:10:41;;;;;;;4.95;0.95;;;;;;;25.69;32.20;95109.88;5016729;28;20558;-78
2022/06/08 08:13:08;;;;;;;1.27;0.70;;;;;;;26.39;33.17;95104.59;5033039;28;20179;-78
2022/06/08 08:15:34;;;;;;;2.88;0.73;;;;;;;26.24;30.86;95105.28;5032851;28;20206;-78
2022/06/08 08:17:59;;;;;;;5.07;1.17;;;;;;;26.29;30.57;95099.19;5016778;28;20574;-78
2022/06/08 08:20:26;;;;;;;1.08;0.50;;;;;;;25.57;32.16;95106.56;5033371;28;20258;-79
2022/06/08 08:22:51;;;;;;;2.80;0.98;;;;;;;24.61;34.56;95092.19;5017413;28;20183;-79
2022/06/08 08:25:17;;;;;;;4.20;0.90;;;;;;;24.45;34.16;95086.69;5020401;28;20730;-79
2022/06/08 08:27:44;;;;;;;3.95;0.90;;;;;;;24.17;33.54;95086.78;5038468;28;20273;-79
2022/06/08 08:30:12;;;;;;;2.90;0.98;;;;;;;23.31;36.97;95091.47;5038484;28;20178;-78
2022/06/08 08:32:37;;;;;;;3.50;1.10;;;;;;;22.59;38.82;95084.75;5038767;28;20194;-78
2022/06/08 08:35:03;;;;;;;2.38;1.10;;;;;;;22.67;39.58;95088.91;5037642;28;20601;-79
2022/06/08 08:37:29;;;;;;;4.30;1.70;;;;;;;21.65;43.05;95076.06;5034840;28;20287;-78
2022/06/08 08:39:55;;;;;;;3.38;0.95;;;;;;;21.71;43.91;95072.47;5016549;28;20187;-80
2022/06/08 08:42:20;;;;;;;4.07;1.13;;;;;;;21.46;44.88;95067.38;5032780;28;20573;-77
2022/06/08 08:45:01;;;;;;;2.10;0.98;;;;;;;21.87;44.17;95063.06;5015660;28;20249;-79
2022/06/08 08:47:33;;;;;;;3.35;1.10;;;;;;;21.84;44.88;95058.25;5032860;28;20190;-80
2022/06/08 08:50:15;;;;;;;5.15;2.38;;;;;;;21.14;47.39;95066.00;5016206;28;20179;-79
2022/06/08 08:52:48;;;;;;;6.68;1.80;;;;;;;20.73;47.45;95057.00;5015439;28;20178;-79
2022/06/08 08:55:19;;;;;;;4.75;1.10;;;;;;;20.58;48.74;95048.66;5032844;28;20221;-78
2022/06/08 08:57:55;;;;;;;1.55;1.02;;;;;;;20.85;48.31;95054.44;5055161;28;20187;-76
2022/06/08 09:00:29;;;;;;;1.88;1.00;;;;;;;20.51;48.93;95054.03;5056508;28;20163;-78
2022/06/08 09:05:39;;;;;;;3.05;1.02;;;;;;;20.59;49.17;95050.28;5033918;28;20610;-77
2022/06/08 09:08:09;;;;;;;4.10;1.40;;;;;;;20.08;51.87;95046.97;5033162;28;20201;-80
2022/06/08 09:10:34;;;;;;;4.20;1.00;;;;;;;19.78;50.80;95041.56;5032708;28;20251;-79
2022/06/08 09:13:03;;;;;;;1.75;1.02;;;;;;;20.40;49.55;95044.16;5032482;28;20178;-77
2022/06/08 09:15:47;;;;;;;2.80;1.30;;;;;;;20.28;50.40;95030.13;5015308;28;20697;-79
2022/06/08 09:18:37;;;;;;;3.05;1.00;;;;;;;20.27;49.18;95031.16;5015264;28;20238;-77
2022/06/08 09:21:21;;;;;;;3.42;1.85;;;;;;;20.15;50.28;95031.09;5015754;28;20175;-79
2022/06/08 09:23:48;;;;;;;3.75;0.90;;;;;;;20.61;48.24;95024.50;5032840;28;20182;-77
2022/06/08 09:26:26;;;;;;;1.92;1.08;;;;;;;20.33;48.71;95030.28;5031623;28;20205;-78
2022/06/08 09:29:07;;;;;;;1.90;1.00;;;;;;;20.29;48.90;95031.72;5031897;28;20571;-78
2022/06/08 09:31:35;;;;;;;3.20;1.00;;;;;;;20.08;49.63;95027.72;5031753;28;20586;-78
2022/06/08 09:34:06;;;;;;;2.45;1.27;;;;;;;19.36;50.63;95022.06;5014383;28;20218;-78
2022/06/08 09:36:31;;;;;;;1.42;1.25;;;;;;;19.94;50.73;95028.84;5015318;28;20476;-78
2022/06/08 09:38:57;;;;;;;4.13;1.30;;;;;;;19.63;51.04;95029.78;5033071;28;20615;-79
2022/06/08 09:41:40;;;;;;;2.45;1.00;;;;;;;19.52;51.14;95025.97;5031857;28;20224;-79
2022/06/08 09:44:28;;;;;;;5.85;1.45;;;;;;;19.55;51.16;95027.38;5014134;28;20187;-79
2022/06/08 09:53:15;;;;;;;4.38;1.20;;;;;;;18.67;54.41;95020.28;5030748;28;20185;-79
2022/06/08 09:55:51;;;;;;;2.50;1.00;;;;;;;18.68;53.84;95021.88;5032107;28;20252;-79
2022/06/08 09:58:45;;;;;;;3.42;1.30;;;;;;;18.66;54.17;95023.94;5031629;28;20194;-79
2022/06/08 10:01:18;;;;;;;2.88;1.55;;;;;;;18.59;55.92;95015.22;5031511;28;20177;-77
2022/06/08 10:04:05;;;;;;;4.13;1.20;;;;;;;18.83;55.04;95011.91;5030801;28;20653;-78
2022/06/08 10:06:41;;;;;;;2.28;1.20;;;;;;;18.90;54.70;95007.38;5032491;28;20657;-79
2022/06/08 10:09:06;;;;;;;5.38;1.85;;;;;;;19.32;53.37;94997.16;5031412;28;20194;-79
2022/06/08 10:11:56;;;;;;;2.22;1.08;;;;;;;19.35;54.07;94990.69;5032450;28;20224;-79
2022/06/08 10:14:30;;;;;;;3.33;1.25;;;;;;;19.55;53.45;94993.16;5015684;28;20210;-78
2022/06/08 10:17:14;;;;;;;3.55;2.17;;;;;;;20.07;53.18;94997.91;5031936;28;20224;-78
2022/06/08 10:19:47;;;;;;;4.97;1.60;;;;;;;20.55;51.73;94996.34;5029603;28;20676;-78
2022/06/08 10:22:12;;;;;;;7.95;2.05;;;;;;;20.88;50.01;94996.72;5032321;28;20212;-78
2022/06/08 10:24:53;;;;;;;4.40;1.30;;;;;;;21.64;46.79;94995.16;5013501;28;20170;-79
2022/06/08 10:27:31;;;;;;;4.75;1.05;;;;;;;22.16;47.25;94995.25;5030915;28;20242;-78
2022/06/08 10:30:16;;;;;;;2.10;1.00;;;;;;;22.97;42.91;94987.28;5014271;28;20705;-78
2022/06/08 10:32:46;;;;;;;2.05;1.13;;;;;;;22.89;42.54;94984.03;5030711;28;20188;-78
2022/06/08 10:35:31;;;;;;;4.57;1.30;;;;;;;23.87;42.69;94973.13;5013943;28;20306;-78
2022/06/08 10:38:00;;;;;;;2.53;1.10;;;;;;;23.85;40.51;94973.34;5014638;28;20269;-81
2022/06/08 10:40:32;;;;;;;3.92;1.10;;;;;;;24.08;39.57;94963.59;5031045;28;20196;-78
2022/06/08 10:42:57;;;;;;;2.47;1.02;;;;;;;23.81;40.28;94968.78;5032321;28;20563;-77
2022/06/08 10:45:22;;;;;;;3.40;1.25;;;;;;;22.52;41.72;94970.31;5027456;28;20270;-77
2022/06/08 10:48:01;;;;;;;3.40;1.27;;;;;;;22.65;39.58;94963.94;5028615;28;20209;-76
2022/06/08 10:50:48;;;;;;;2.85;1.00;;;;;;;22.54;42.44;94960.31;5046217;28;20432;-79
2022/06/08 10:56:36;;;;;;;2.70;0.90;;;;;;;23.36;40.47;94949.28;5007861;28;20325;-78
2022/06/08 10:59:07;;;;;;;2.42;1.10;;;;;;;23.67;39.79;94947.91;5006973;28;20976;-77
2022/06/08 11:01:54;;;;;;;2.75;0.88;;;;;;;23.74;39.34;94951.19;5007782;28;20248;-78
2022/06/08 11:04:37;;;;;;;2.63;1.65;;;;;;;23.65;38.60;94951.88;5016372;28;20175;-79
2022/06/08 11:07:07;;;;;;;5.43;1.15;;;;;;;23.58;38.48;94946.69;5008250;28;20178;-76
2022/06/08 11:09:32;;;;;;;3.15;0.85;;;;;;;24.41;39.28;94939.63;5009991;28;20179;-78
2022/06/08 11:12:30;;;;;;;2.38;1.33;;;;;;;25.09;36.06;94943.53;5028781;28;20192;-78
2022/06/08 11:14:58;;;;;;;1.95;0.90;;;;;;;24.18;36.84;94934.53;5026493;28;20218;-78
2022/06/08 11:17:31;;;;;;;3.53;1.13;;;;;;;24.59;36.88;94930.53;5010406;28;20293;-78
2022/06/08 11:20:16;;;;;;;4.13;1.52;;;;;;;25.50;34.96;94925.22;5026975;28;20179;-78
2022/06/08 11:22:59;;;;;;;3.17;1.00;;;;;;;25.30;35.20;94923.22;5011277;28;20186;-77
2022/06/08 11:25:28;;;;;;;2.92;0.80;;;;;;;24.75;37.56;94918.22;5018682;28;20228;-77
2022/06/08 11:28:25;;;;;;;2.15;0.98;;;;;;;25.12;35.39;94916.44;5018451;28;20213;-76
2022/06/08 11:30:54;;;;;;;2.85;1.30;;;;;;;24.56;37.13;94926.53;5032995;28;20173;-79
2022/06/08 11:33:20;;;;;;;1.95;1.15;;;;;;;24.69;37.17;94921.84;5030073;28;20232;-78
2022/06/08 11:36:07;;;;;;;2.25;1.02;;;;;;;23.44;37.65;94919.75;5031053;28;20198;-78
2022/06/08 11:38:35;;;;;;;2.08;0.98;;;;;;;23.07;39.88;94923.94;5030556;28;20267;-78
2022/06/08 11:41:28;;;;;;;2.22;0.88;;;;;;;22.48;41.26;94918.91;5029021;28;20201;-78
2022/06/08 11:43:54;;;;;;;1.83;1.05;;;;;;;22.63;40.88;94929.00;5030473;28;20557;-78
2022/06/08 11:46:24;;;;;;;5.28;1.35;;;;;;;22.33;40.75;94922.06;5030096;28;20170;-78
2022/06/08 11:48:49;;;;;;;1.95;0.90;;;;;;;22.31;42.15;94926.81;5014143;28;20555;-79
2022/06/08 11:51:37;;;;;;;2.25;0.80;;;;;;;22.37;42.16;94926.91;5013777;28;20236;-78
2022/06/08 11:54:21;;;;;;;4.90;1.30;;;;;;;22.19;42.95;94925.25;5012675;28;20213;-78
2022/06/08 11:57:02;;;;;;;2.88;1.20;;;;;;;21.89;43.86;94922.75;5029200;28;20273;-79
2022/06/08 11:59:28;;;;;;;4.90;1.10;;;;;;;21.97;42.25;94925.84;5031295;28;20194;-79
2022/06/08 12:01:58;;;;;;;2.22;1.10;;;;;;;22.23;42.77;94919.25;5013322;28;20190;-78
2022/06/08 12:04:26;;;;;;;21.27;2.78;;;;;;;22.28;42.68;94921.19;5029474;28;20174;-78
2022/06/08 12:06:53;;;;;;;31.52;6.13;;;;;;;22.18;43.50;94911.22;5029656;28;20171;-79
2022/06/08 12:09:28;;;;;;;5.53;1.40;;;;;;;22.64;42.29;94916.56;5031443;28;20203;-79